sensor_id;sensor_type;location;lat;lon;timestamp;temperature;humidity
7206;DHT22;3644;53.480;10.004;2022-12-18T00:01:21;-2.30;99.90
7206;DHT22;3644;53.480;10.004;2022-12-18T00:03:48;-2.30;99.90
7206;DHT22;3644;53.480;10.004;2022-12-18T00:06:14;-2.30;99.90
7206;DHT22;3644;53.480;10.004;2022-12-18T00:08:41;-2.20;99.90
7206;DHT22;3644;53.480;10.004;2022-12-18T00:11:08;-2.40;99.90
7206;DHT22;3644;53.480;10.004;2022-12-18T00:13:35;-2.40;99.90
7206;DHT22;3644;53.480;10.004;2022-12-18T00:16:03;-2.50;99.90
7206;DHT22;3644;53.480;10.004;2022-12-18T00:18:28;-2.40;99.90
7206;DHT22;3644;53.480;10.004;2022-12-18T00:20:59;-2.30;99.90
7206;DHT22;3644;53.480;10.004;2022-12-18T00:23:25;-2.40;99.90
7206;DHT22;3644;53.480;10.004;2022-12-18T00:25:51;-2.40;99.90
7206;DHT22;3644;53.480;10.004;2022-12-18T00:28:17;-2.50;99.90
7206;DHT22;3644;53.480;10.004;2022-12-18T00:30:42;-2.50;99.90
7206;DHT22;3644;53.480;10.004;2022-12-18T00:33:07;-2.40;99.90
7206;DHT22;3644;53.480;10.004;2022-12-18T00:35:33;-2.50;99.90
7206;DHT22;3644;53.480;10.004;2022-12-18T00:37:58;-2.50;99.90
7206;DHT22;3644;53.480;10.004;2022-12-18T00:40:24;-2.40;99.90
7206;DHT22;3644;53.480;10.004;2022-12-18T00:42:49;-2.40;99.90
7206;DHT22;3644;53.480;10.004;2022-12-18T00:45:29;-2.40;99.90
7206;DHT22;3644;53.480;10.004;2022-12-18T00:47:55;-2.40;99.90
7206;DHT22;3644;53.480;10.004;2022-12-18T00:50:23;-2.40;99.90
7206;DHT22;3644;53.480;10.004;2022-12-18T00:52:48;-2.50;99.90
7206;DHT22;3644;53.480;10.004;2022-12-18T00:55:15;-2.30;99.90
7206;DHT22;3644;53.480;10.004;2022-12-18T00:57:41;-2.50;99.90
7206;DHT22;3644;53.480;10.004;2022-12-18T01:00:09;-2.50;99.90
7206;DHT22;3644;53.480;10.004;2022-12-18T01:02:35;-2.50;99.90
7206;DHT22;3644;53.480;10.004;2022-12-18T01:05:01;-2.60;99.90
7206;DHT22;3644;53.480;10.004;2022-12-18T01:07:27;-2.50;99.90
7206;DHT22;3644;53.480;10.004;2022-12-18T01:09:52;-2.40;99.90
7206;DHT22;3644;53.480;10.004;2022-12-18T01:12:18;-2.40;99.90
7206;DHT22;3644;53.480;10.004;2022-12-18T01:14:43;-2.40;99.90
7206;DHT22;3644;53.480;10.004;2022-12-18T01:17:09;-2.50;99.90
7206;DHT22;3644;53.480;10.004;2022-12-18T01:19:34;-2.50;99.90
7206;DHT22;3644;53.480;10.004;2022-12-18T01:22:00;-2.50;99.90
7206;DHT22;3644;53.480;10.004;2022-12-18T01:24:25;-2.60;99.90
7206;DHT22;3644;53.480;10.004;2022-12-18T01:26:51;-2.60;99.90
7206;DHT22;3644;53.480;10.004;2022-12-18T01:29:16;-2.50;99.90
7206;DHT22;3644;53.480;10.004;2022-12-18T01:31:42;-2.40;99.90
7206;DHT22;3644;53.480;10.004;2022-12-18T01:34:08;-2.40;99.90
7206;DHT22;3644;53.480;10.004;2022-12-18T01:36:36;-2.50;99.90
7206;DHT22;3644;53.480;10.004;2022-12-18T01:39:04;-2.60;99.90
7206;DHT22;3644;53.480;10.004;2022-12-18T01:41:32;-2.70;99.90
7206;DHT22;3644;53.480;10.004;2022-12-18T01:47:18;-2.60;99.90
7206;DHT22;3644;53.480;10.004;2022-12-18T01:49:45;-2.60;99.90
7206;DHT22;3644;53.480;10.004;2022-12-18T01:52:10;-2.50;99.90
7206;DHT22;3644;53.480;10.004;2022-12-18T01:54:36;-2.50;99.90
7206;DHT22;3644;53.480;10.004;2022-12-18T01:57:02;-2.60;99.90
7206;DHT22;3644;53.480;10.004;2022-12-18T01:59:27;-2.60;99.90
7206;DHT22;3644;53.480;10.004;2022-12-18T02:01:54;-2.60;99.90
7206;DHT22;3644;53.480;10.004;2022-12-18T02:04:25;-2.60;99.90
7206;DHT22;3644;53.480;10.004;2022-12-18T02:12:45;-2.70;99.90
7206;DHT22;3644;53.480;10.004;2022-12-18T02:15:24;-2.70;99.90
7206;DHT22;3644;53.480;10.004;2022-12-18T02:20:24;-2.80;99.90
7206;DHT22;3644;53.480;10.004;2022-12-18T02:23:01;-2.80;99.90
7206;DHT22;3644;53.480;10.004;2022-12-18T02:28:25;-2.80;99.90
7206;DHT22;3644;53.480;10.004;2022-12-18T02:30:56;-2.90;99.90
7206;DHT22;3644;53.480;10.004;2022-12-18T02:33:27;-2.90;99.90
7206;DHT22;3644;53.480;10.004;2022-12-18T02:35:54;-2.90;99.90
7206;DHT22;3644;53.480;10.004;2022-12-18T02:38:20;-3.00;99.90
7206;DHT22;3644;53.480;10.004;2022-12-18T02:40:46;-2.90;99.90
7206;DHT22;3644;53.480;10.004;2022-12-18T02:43:15;-3.00;99.90
7206;DHT22;3644;53.480;10.004;2022-12-18T02:45:53;-3.00;99.90
7206;DHT22;3644;53.480;10.004;2022-12-18T02:48:23;-3.10;99.90
7206;DHT22;3644;53.480;10.004;2022-12-18T02:51:23;-3.10;99.90
7206;DHT22;3644;53.480;10.004;2022-12-18T02:54:01;-3.10;99.90
7206;DHT22;3644;53.480;10.004;2022-12-18T02:56:35;-3.10;99.90
7206;DHT22;3644;53.480;10.004;2022-12-18T02:59:12;-3.30;99.90
7206;DHT22;3644;53.480;10.004;2022-12-18T03:04:28;-3.30;99.90
7206;DHT22;3644;53.480;10.004;2022-12-18T03:06:57;-3.30;99.90
7206;DHT22;3644;53.480;10.004;2022-12-18T03:09:45;-3.40;99.90
7206;DHT22;3644;53.480;10.004;2022-12-18T03:14:50;-3.40;99.90
7206;DHT22;3644;53.480;10.004;2022-12-18T03:17:19;-3.50;99.90
7206;DHT22;3644;53.480;10.004;2022-12-18T03:19:46;-3.40;99.90
7206;DHT22;3644;53.480;10.004;2022-12-18T03:22:13;-3.40;99.90
7206;DHT22;3644;53.480;10.004;2022-12-18T03:24:41;-3.50;99.90
7206;DHT22;3644;53.480;10.004;2022-12-18T03:27:11;-3.50;99.90
7206;DHT22;3644;53.480;10.004;2022-12-18T03:29:45;-3.40;99.90
7206;DHT22;3644;53.480;10.004;2022-12-18T03:32:15;-3.30;99.90
7206;DHT22;3644;53.480;10.004;2022-12-18T03:34:43;-3.20;99.90
7206;DHT22;3644;53.480;10.004;2022-12-18T03:37:11;-3.30;99.90
7206;DHT22;3644;53.480;10.004;2022-12-18T03:39:37;-3.30;99.90
7206;DHT22;3644;53.480;10.004;2022-12-18T03:42:33;-3.30;99.90
7206;DHT22;3644;53.480;10.004;2022-12-18T03:45:22;-3.20;99.90
7206;DHT22;3644;53.480;10.004;2022-12-18T03:48:08;-3.30;99.90
7206;DHT22;3644;53.480;10.004;2022-12-18T03:50:44;-3.30;99.90
7206;DHT22;3644;53.480;10.004;2022-12-18T03:56:04;-3.40;99.90
7206;DHT22;3644;53.480;10.004;2022-12-18T03:58:31;-3.40;99.90
7206;DHT22;3644;53.480;10.004;2022-12-18T04:01:01;-3.30;99.90
7206;DHT22;3644;53.480;10.004;2022-12-18T04:03:29;-3.30;99.90
7206;DHT22;3644;53.480;10.004;2022-12-18T04:05:57;-3.30;99.90
7206;DHT22;3644;53.480;10.004;2022-12-18T04:08:24;-3.30;99.90
7206;DHT22;3644;53.480;10.004;2022-12-18T04:10:50;-3.30;99.90
7206;DHT22;3644;53.480;10.004;2022-12-18T04:13:23;-3.20;99.90
7206;DHT22;3644;53.480;10.004;2022-12-18T04:15:49;-3.20;99.90
7206;DHT22;3644;53.480;10.004;2022-12-18T04:18:14;-3.30;99.90
7206;DHT22;3644;53.480;10.004;2022-12-18T04:20:40;-3.30;99.90
7206;DHT22;3644;53.480;10.004;2022-12-18T04:23:05;-3.30;99.90
7206;DHT22;3644;53.480;10.004;2022-12-18T04:25:31;-3.40;99.90
7206;DHT22;3644;53.480;10.004;2022-12-18T04:27:56;-3.40;99.90
7206;DHT22;3644;53.480;10.004;2022-12-18T04:30:22;-3.20;99.90
7206;DHT22;3644;53.480;10.004;2022-12-18T04:32:47;-3.00;99.90
7206;DHT22;3644;53.480;10.004;2022-12-18T04:35:13;-3.00;99.90
7206;DHT22;3644;53.480;10.004;2022-12-18T04:37:38;-3.10;99.90
7206;DHT22;3644;53.480;10.004;2022-12-18T04:40:04;-3.00;99.90
7206;DHT22;3644;53.480;10.004;2022-12-18T04:42:30;-3.10;99.90
7206;DHT22;3644;53.480;10.004;2022-12-18T04:44:55;-3.10;99.90
7206;DHT22;3644;53.480;10.004;2022-12-18T04:47:21;-3.20;99.90
7206;DHT22;3644;53.480;10.004;2022-12-18T04:49:46;-3.10;99.90
7206;DHT22;3644;53.480;10.004;2022-12-18T04:52:12;-3.10;99.90
7206;DHT22;3644;53.480;10.004;2022-12-18T04:54:37;-3.10;99.90
7206;DHT22;3644;53.480;10.004;2022-12-18T04:57:03;-3.10;99.90
7206;DHT22;3644;53.480;10.004;2022-12-18T04:59:28;-3.20;99.90
7206;DHT22;3644;53.480;10.004;2022-12-18T05:01:54;-3.20;99.90
7206;DHT22;3644;53.480;10.004;2022-12-18T05:04:19;-3.10;99.90
7206;DHT22;3644;53.480;10.004;2022-12-18T05:06:45;-3.00;99.90
7206;DHT22;3644;53.480;10.004;2022-12-18T05:09:10;-3.10;99.90
7206;DHT22;3644;53.480;10.004;2022-12-18T05:11:36;-3.10;99.90
7206;DHT22;3644;53.480;10.004;2022-12-18T05:14:01;-3.10;99.90
7206;DHT22;3644;53.480;10.004;2022-12-18T05:16:27;-3.10;99.90
7206;DHT22;3644;53.480;10.004;2022-12-18T05:18:52;-3.10;99.90
7206;DHT22;3644;53.480;10.004;2022-12-18T05:21:18;-3.00;99.90
7206;DHT22;3644;53.480;10.004;2022-12-18T05:23:43;-3.10;99.90
7206;DHT22;3644;53.480;10.004;2022-12-18T05:26:09;-3.10;99.90
7206;DHT22;3644;53.480;10.004;2022-12-18T05:28:39;-3.10;99.90
7206;DHT22;3644;53.480;10.004;2022-12-18T05:31:04;-3.20;99.90
7206;DHT22;3644;53.480;10.004;2022-12-18T05:33:33;-3.00;99.90
7206;DHT22;3644;53.480;10.004;2022-12-18T05:36:04;-3.10;99.90
7206;DHT22;3644;53.480;10.004;2022-12-18T05:38:32;-3.00;99.90
7206;DHT22;3644;53.480;10.004;2022-12-18T05:40:57;-3.10;99.90
7206;DHT22;3644;53.480;10.004;2022-12-18T05:43:24;-3.00;99.90
7206;DHT22;3644;53.480;10.004;2022-12-18T05:45:51;-3.10;99.90
7206;DHT22;3644;53.480;10.004;2022-12-18T05:48:17;-3.00;99.90
7206;DHT22;3644;53.480;10.004;2022-12-18T05:50:44;-3.00;99.90
7206;DHT22;3644;53.480;10.004;2022-12-18T05:53:15;-3.00;99.90
7206;DHT22;3644;53.480;10.004;2022-12-18T05:55:42;-3.10;99.90
7206;DHT22;3644;53.480;10.004;2022-12-18T05:58:10;-3.10;99.90
7206;DHT22;3644;53.480;10.004;2022-12-18T06:00:42;-3.00;99.90
7206;DHT22;3644;53.480;10.004;2022-12-18T06:03:09;-3.10;99.90
7206;DHT22;3644;53.480;10.004;2022-12-18T06:05:40;-3.20;99.90
7206;DHT22;3644;53.480;10.004;2022-12-18T06:08:06;-3.20;99.90
7206;DHT22;3644;53.480;10.004;2022-12-18T06:10:31;-3.10;99.90
7206;DHT22;3644;53.480;10.004;2022-12-18T06:12:57;-3.10;99.90
7206;DHT22;3644;53.480;10.004;2022-12-18T06:15:22;-3.20;99.90
7206;DHT22;3644;53.480;10.004;2022-12-18T06:17:47;-3.20;99.90
7206;DHT22;3644;53.480;10.004;2022-12-18T06:20:13;-3.10;99.90
7206;DHT22;3644;53.480;10.004;2022-12-18T06:22:38;-3.00;99.90
7206;DHT22;3644;53.480;10.004;2022-12-18T06:25:04;-3.00;99.90
7206;DHT22;3644;53.480;10.004;2022-12-18T06:27:31;-3.20;99.90
7206;DHT22;3644;53.480;10.004;2022-12-18T06:29:57;-3.10;99.90
7206;DHT22;3644;53.480;10.004;2022-12-18T06:32:22;-3.10;99.90
7206;DHT22;3644;53.480;10.004;2022-12-18T06:34:47;-3.20;99.90
7206;DHT22;3644;53.480;10.004;2022-12-18T06:37:13;-3.30;99.90
7206;DHT22;3644;53.480;10.004;2022-12-18T06:39:38;-3.20;99.90
7206;DHT22;3644;53.480;10.004;2022-12-18T06:42:04;-3.20;99.90
7206;DHT22;3644;53.480;10.004;2022-12-18T06:44:30;-3.20;99.90
7206;DHT22;3644;53.480;10.004;2022-12-18T06:46:55;-3.30;99.90
7206;DHT22;3644;53.480;10.004;2022-12-18T06:49:21;-3.20;99.90
7206;DHT22;3644;53.480;10.004;2022-12-18T06:51:46;-3.20;99.90
7206;DHT22;3644;53.480;10.004;2022-12-18T06:54:12;-3.20;99.90
7206;DHT22;3644;53.480;10.004;2022-12-18T06:56:38;-3.10;99.90
7206;DHT22;3644;53.480;10.004;2022-12-18T06:59:03;-3.00;99.90
7206;DHT22;3644;53.480;10.004;2022-12-18T07:01:29;-3.10;99.90
7206;DHT22;3644;53.480;10.004;2022-12-18T07:03:55;-3.30;99.90
7206;DHT22;3644;53.480;10.004;2022-12-18T07:06:23;-3.30;99.90
7206;DHT22;3644;53.480;10.004;2022-12-18T07:08:49;-3.30;99.90
7206;DHT22;3644;53.480;10.004;2022-12-18T07:11:16;-3.30;99.90
7206;DHT22;3644;53.480;10.004;2022-12-18T07:13:42;-3.30;99.90
7206;DHT22;3644;53.480;10.004;2022-12-18T07:16:09;-3.30;99.90
7206;DHT22;3644;53.480;10.004;2022-12-18T07:18:35;-3.40;99.90
7206;DHT22;3644;53.480;10.004;2022-12-18T07:21:10;-3.30;99.90
7206;DHT22;3644;53.480;10.004;2022-12-18T07:23:36;-3.20;99.90
7206;DHT22;3644;53.480;10.004;2022-12-18T07:26:06;-3.20;99.90
7206;DHT22;3644;53.480;10.004;2022-12-18T07:28:33;-3.20;99.90
7206;DHT22;3644;53.480;10.004;2022-12-18T07:31:03;-2.90;99.90
7206;DHT22;3644;53.480;10.004;2022-12-18T07:33:28;-2.70;99.90
7206;DHT22;3644;53.480;10.004;2022-12-18T07:35:54;-2.50;99.90
7206;DHT22;3644;53.480;10.004;2022-12-18T07:38:20;-2.50;99.90
7206;DHT22;3644;53.480;10.004;2022-12-18T07:40:45;-2.80;99.90
7206;DHT22;3644;53.480;10.004;2022-12-18T07:43:11;-3.00;99.90
7206;DHT22;3644;53.480;10.004;2022-12-18T07:45:36;-3.10;99.90
7206;DHT22;3644;53.480;10.004;2022-12-18T07:48:02;-3.10;99.90
7206;DHT22;3644;53.480;10.004;2022-12-18T07:50:27;-3.10;99.90
7206;DHT22;3644;53.480;10.004;2022-12-18T07:52:53;-3.00;99.90
7206;DHT22;3644;53.480;10.004;2022-12-18T07:55:18;-3.00;99.90
7206;DHT22;3644;53.480;10.004;2022-12-18T07:57:44;-3.10;99.90
7206;DHT22;3644;53.480;10.004;2022-12-18T08:00:10;-3.10;99.90
7206;DHT22;3644;53.480;10.004;2022-12-18T08:02:35;-3.10;99.90
7206;DHT22;3644;53.480;10.004;2022-12-18T08:05:01;-3.10;99.90
7206;DHT22;3644;53.480;10.004;2022-12-18T08:07:26;-3.10;99.90
7206;DHT22;3644;53.480;10.004;2022-12-18T08:09:52;-3.30;99.90
7206;DHT22;3644;53.480;10.004;2022-12-18T08:12:17;-3.20;99.90
7206;DHT22;3644;53.480;10.004;2022-12-18T08:14:43;-3.20;99.90
7206;DHT22;3644;53.480;10.004;2022-12-18T08:17:08;-3.20;99.90
7206;DHT22;3644;53.480;10.004;2022-12-18T08:19:34;-3.30;99.90
7206;DHT22;3644;53.480;10.004;2022-12-18T08:21:59;-3.20;99.90
7206;DHT22;3644;53.480;10.004;2022-12-18T08:24:25;-3.20;99.90
7206;DHT22;3644;53.480;10.004;2022-12-18T08:26:51;-3.10;99.90
7206;DHT22;3644;53.480;10.004;2022-12-18T08:29:16;-3.30;99.90
7206;DHT22;3644;53.480;10.004;2022-12-18T08:31:42;-3.20;99.90
7206;DHT22;3644;53.480;10.004;2022-12-18T08:34:08;-3.20;99.90
7206;DHT22;3644;53.480;10.004;2022-12-18T08:36:35;-3.20;99.90
7206;DHT22;3644;53.480;10.004;2022-12-18T08:39:00;-3.10;99.90
7206;DHT22;3644;53.480;10.004;2022-12-18T08:41:26;-3.00;99.90
7206;DHT22;3644;53.480;10.004;2022-12-18T08:43:51;-3.00;99.90
7206;DHT22;3644;53.480;10.004;2022-12-18T08:46:41;-3.00;99.90
7206;DHT22;3644;53.480;10.004;2022-12-18T08:49:07;-2.60;99.90
7206;DHT22;3644;53.480;10.004;2022-12-18T08:51:33;-3.00;99.90
7206;DHT22;3644;53.480;10.004;2022-12-18T08:53:59;-2.90;99.90
7206;DHT22;3644;53.480;10.004;2022-12-18T08:56:25;-2.70;99.90
7206;DHT22;3644;53.480;10.004;2022-12-18T08:58:52;-2.80;99.90
7206;DHT22;3644;53.480;10.004;2022-12-18T09:01:18;-2.80;99.90
7206;DHT22;3644;53.480;10.004;2022-12-18T09:03:47;-2.70;99.90
7206;DHT22;3644;53.480;10.004;2022-12-18T09:06:14;-2.60;99.90
7206;DHT22;3644;53.480;10.004;2022-12-18T09:08:41;-2.70;99.90
7206;DHT22;3644;53.480;10.004;2022-12-18T09:11:13;-2.50;99.90
7206;DHT22;3644;53.480;10.004;2022-12-18T09:13:38;-2.60;99.90
7206;DHT22;3644;53.480;10.004;2022-12-18T09:16:04;-2.50;99.90
7206;DHT22;3644;53.480;10.004;2022-12-18T09:18:29;-2.50;99.90
7206;DHT22;3644;53.480;10.004;2022-12-18T09:20:55;-2.30;99.90
7206;DHT22;3644;53.480;10.004;2022-12-18T09:23:21;-2.20;99.90
7206;DHT22;3644;53.480;10.004;2022-12-18T09:25:47;-2.20;99.90
7206;DHT22;3644;53.480;10.004;2022-12-18T09:28:17;-2.20;99.90
7206;DHT22;3644;53.480;10.004;2022-12-18T09:30:48;-2.10;99.90
7206;DHT22;3644;53.480;10.004;2022-12-18T09:33:14;-2.20;99.90
7206;DHT22;3644;53.480;10.004;2022-12-18T09:35:41;-2.10;99.90
7206;DHT22;3644;53.480;10.004;2022-12-18T09:38:08;-2.10;99.90
7206;DHT22;3644;53.480;10.004;2022-12-18T09:40:43;-2.10;99.90
7206;DHT22;3644;53.480;10.004;2022-12-18T09:43:19;-2.00;99.90
7206;DHT22;3644;53.480;10.004;2022-12-18T09:45:49;-1.80;99.90
7206;DHT22;3644;53.480;10.004;2022-12-18T09:48:29;-1.80;99.90
7206;DHT22;3644;53.480;10.004;2022-12-18T09:51:00;-1.70;99.90
7206;DHT22;3644;53.480;10.004;2022-12-18T09:53:31;-1.70;99.90
7206;DHT22;3644;53.480;10.004;2022-12-18T09:56:00;-1.70;99.90
7206;DHT22;3644;53.480;10.004;2022-12-18T09:58:32;-1.60;99.90
7206;DHT22;3644;53.480;10.004;2022-12-18T10:01:00;-1.60;99.90
7206;DHT22;3644;53.480;10.004;2022-12-18T10:03:26;-1.60;99.90
7206;DHT22;3644;53.480;10.004;2022-12-18T10:06:02;-1.60;99.90
7206;DHT22;3644;53.480;10.004;2022-12-18T10:11:23;-1.40;99.90
7206;DHT22;3644;53.480;10.004;2022-12-18T10:13:58;-1.40;99.90
7206;DHT22;3644;53.480;10.004;2022-12-18T10:22:18;-1.30;99.90
7206;DHT22;3644;53.480;10.004;2022-12-18T10:27:18;-1.20;99.90
7206;DHT22;3644;53.480;10.004;2022-12-18T10:29:44;-1.10;99.90
7206;DHT22;3644;53.480;10.004;2022-12-18T10:32:17;-1.20;99.90
7206;DHT22;3644;53.480;10.004;2022-12-18T10:34:48;-1.10;99.90
7206;DHT22;3644;53.480;10.004;2022-12-18T10:37:18;-1.20;99.90
7206;DHT22;3644;53.480;10.004;2022-12-18T10:39:44;-1.10;99.90
7206;DHT22;3644;53.480;10.004;2022-12-18T10:42:18;-1.20;99.90
7206;DHT22;3644;53.480;10.004;2022-12-18T10:44:44;-1.10;99.90
7206;DHT22;3644;53.480;10.004;2022-12-18T10:47:15;-1.10;99.90
7206;DHT22;3644;53.480;10.004;2022-12-18T10:49:49;-1.00;99.90
7206;DHT22;3644;53.480;10.004;2022-12-18T10:52:21;-0.80;99.90
7206;DHT22;3644;53.480;10.004;2022-12-18T10:54:55;-0.80;99.90
7206;DHT22;3644;53.480;10.004;2022-12-18T10:59:56;-0.70;99.90
7206;DHT22;3644;53.480;10.004;2022-12-18T11:02:28;-0.60;99.90
7206;DHT22;3644;53.480;10.004;2022-12-18T11:04:58;-0.50;99.90
7206;DHT22;3644;53.480;10.004;2022-12-18T11:07:23;-0.50;99.90
7206;DHT22;3644;53.480;10.004;2022-12-18T11:10:02;-0.40;99.90
7206;DHT22;3644;53.480;10.004;2022-12-18T11:12:28;-0.40;99.90
7206;DHT22;3644;53.480;10.004;2022-12-18T11:14:58;-0.20;99.90
7206;DHT22;3644;53.480;10.004;2022-12-18T11:17:32;-0.20;99.90
7206;DHT22;3644;53.480;10.004;2022-12-18T11:20:02;-0.30;99.90
7206;DHT22;3644;53.480;10.004;2022-12-18T11:22:29;-0.40;99.90
7206;DHT22;3644;53.480;10.004;2022-12-18T11:24:58;-0.40;99.90
7206;DHT22;3644;53.480;10.004;2022-12-18T11:27:24;-0.30;99.90
7206;DHT22;3644;53.480;10.004;2022-12-18T11:29:51;-0.30;99.90
7206;DHT22;3644;53.480;10.004;2022-12-18T11:32:33;-0.10;99.90
7206;DHT22;3644;53.480;10.004;2022-12-18T11:37:36;0.00;99.90
7206;DHT22;3644;53.480;10.004;2022-12-18T11:40:14;0.10;99.90
7206;DHT22;3644;53.480;10.004;2022-12-18T11:50:49;0.30;99.90
7206;DHT22;3644;53.480;10.004;2022-12-18T11:53:16;0.40;99.90
7206;DHT22;3644;53.480;10.004;2022-12-18T11:55:58;0.50;99.90
7206;DHT22;3644;53.480;10.004;2022-12-18T11:58:41;0.50;99.90
7206;DHT22;3644;53.480;10.004;2022-12-18T12:06:31;0.60;99.90
7206;DHT22;3644;53.480;10.004;2022-12-18T12:09:08;0.70;99.90
7206;DHT22;3644;53.480;10.004;2022-12-18T12:14:41;0.70;99.90
7206;DHT22;3644;53.480;10.004;2022-12-18T12:17:34;0.80;99.90
7206;DHT22;3644;53.480;10.004;2022-12-18T12:23:05;0.90;99.90
7206;DHT22;3644;53.480;10.004;2022-12-18T12:25:41;1.00;99.90
7206;DHT22;3644;53.480;10.004;2022-12-18T12:28:52;1.00;99.90
7206;DHT22;3644;53.480;10.004;2022-12-18T12:34:38;0.80;99.90
7206;DHT22;3644;53.480;10.004;2022-12-18T12:37:21;0.80;99.90
7206;DHT22;3644;53.480;10.004;2022-12-18T12:39:51;0.60;99.90
7206;DHT22;3644;53.480;10.004;2022-12-18T12:42:30;0.70;99.90
7206;DHT22;3644;53.480;10.004;2022-12-18T12:45:44;0.80;99.90
7206;DHT22;3644;53.480;10.004;2022-12-18T12:48:15;0.70;99.90
7206;DHT22;3644;53.480;10.004;2022-12-18T12:50:42;0.70;99.90
7206;DHT22;3644;53.480;10.004;2022-12-18T12:53:09;0.70;99.90
7206;DHT22;3644;53.480;10.004;2022-12-18T12:55:41;0.70;99.90
7206;DHT22;3644;53.480;10.004;2022-12-18T13:03:58;0.80;99.90
7206;DHT22;3644;53.480;10.004;2022-12-18T13:06:37;0.70;99.90
7206;DHT22;3644;53.480;10.004;2022-12-18T13:09:05;0.70;99.90
7206;DHT22;3644;53.480;10.004;2022-12-18T13:11:42;0.80;99.90
7206;DHT22;3644;53.480;10.004;2022-12-18T13:14:33;0.90;99.90
7206;DHT22;3644;53.480;10.004;2022-12-18T13:20:06;0.90;99.90
7206;DHT22;3644;53.480;10.004;2022-12-18T13:22:44;1.00;99.90
7206;DHT22;3644;53.480;10.004;2022-12-18T13:25:37;0.90;99.90
7206;DHT22;3644;53.480;10.004;2022-12-18T13:28:06;0.80;99.90
7206;DHT22;3644;53.480;10.004;2022-12-18T13:38:33;0.50;99.90
7206;DHT22;3644;53.480;10.004;2022-12-18T13:41:21;0.50;99.90
7206;DHT22;3644;53.480;10.004;2022-12-18T13:43:49;0.60;99.90
7206;DHT22;3644;53.480;10.004;2022-12-18T13:46:21;0.60;99.90
7206;DHT22;3644;53.480;10.004;2022-12-18T13:48:57;0.60;99.90
7206;DHT22;3644;53.480;10.004;2022-12-18T13:51:24;0.50;99.90
7206;DHT22;3644;53.480;10.004;2022-12-18T13:53:54;0.50;99.90
7206;DHT22;3644;53.480;10.004;2022-12-18T13:56:26;0.50;99.90
7206;DHT22;3644;53.480;10.004;2022-12-18T13:59:13;0.50;99.90
7206;DHT22;3644;53.480;10.004;2022-12-18T14:01:59;0.60;99.90
7206;DHT22;3644;53.480;10.004;2022-12-18T14:09:35;0.50;99.90
7206;DHT22;3644;53.480;10.004;2022-12-18T14:12:01;0.40;99.90
7206;DHT22;3644;53.480;10.004;2022-12-18T14:14:48;0.30;99.90
7206;DHT22;3644;53.480;10.004;2022-12-18T14:17:16;0.30;99.90
7206;DHT22;3644;53.480;10.004;2022-12-18T14:19:43;0.20;99.90
7206;DHT22;3644;53.480;10.004;2022-12-18T14:22:18;0.30;99.90
7206;DHT22;3644;53.480;10.004;2022-12-18T14:24:45;0.30;99.90
7206;DHT22;3644;53.480;10.004;2022-12-18T14:27:23;0.10;99.90
7206;DHT22;3644;53.480;10.004;2022-12-18T14:29:49;0.10;99.90
7206;DHT22;3644;53.480;10.004;2022-12-18T14:32:17;0.20;99.90
7206;DHT22;3644;53.480;10.004;2022-12-18T14:34:48;0.10;99.90
7206;DHT22;3644;53.480;10.004;2022-12-18T14:37:25;0.00;99.90
7206;DHT22;3644;53.480;10.004;2022-12-18T14:39:58;0.00;99.90
7206;DHT22;3644;53.480;10.004;2022-12-18T14:42:31;0.00;99.90
7206;DHT22;3644;53.480;10.004;2022-12-18T14:48:16;-0.10;99.90
7206;DHT22;3644;53.480;10.004;2022-12-18T14:50:43;0.00;99.90
7206;DHT22;3644;53.480;10.004;2022-12-18T14:53:20;-0.20;99.90
7206;DHT22;3644;53.480;10.004;2022-12-18T14:55:47;-0.20;99.90
7206;DHT22;3644;53.480;10.004;2022-12-18T14:58:15;-0.20;99.90
7206;DHT22;3644;53.480;10.004;2022-12-18T15:00:41;-0.20;99.90
7206;DHT22;3644;53.480;10.004;2022-12-18T15:03:08;-0.20;99.90
7206;DHT22;3644;53.480;10.004;2022-12-18T15:05:34;-0.30;99.90
7206;DHT22;3644;53.480;10.004;2022-12-18T15:08:00;-0.10;99.90
7206;DHT22;3644;53.480;10.004;2022-12-18T15:10:32;-0.10;99.90
7206;DHT22;3644;53.480;10.004;2022-12-18T15:23:20;-0.40;99.90
7206;DHT22;3644;53.480;10.004;2022-12-18T15:25:49;-0.40;99.90
7206;DHT22;3644;53.480;10.004;2022-12-18T15:28:32;-0.50;99.90
7206;DHT22;3644;53.480;10.004;2022-12-18T15:33:41;-0.30;99.90
7206;DHT22;3644;53.480;10.004;2022-12-18T15:36:12;-0.20;99.90
7206;DHT22;3644;53.480;10.004;2022-12-18T15:38:38;-0.20;99.90
7206;DHT22;3644;53.480;10.004;2022-12-18T15:41:14;-0.40;99.90
7206;DHT22;3644;53.480;10.004;2022-12-18T15:43:41;-0.20;99.90
7206;DHT22;3644;53.480;10.004;2022-12-18T15:46:12;-0.40;99.90
7206;DHT22;3644;53.480;10.004;2022-12-18T15:48:46;-0.50;99.90
7206;DHT22;3644;53.480;10.004;2022-12-18T15:51:33;-0.40;99.90
7206;DHT22;3644;53.480;10.004;2022-12-18T15:54:01;-0.50;99.90
7206;DHT22;3644;53.480;10.004;2022-12-18T15:56:28;-0.40;99.90
7206;DHT22;3644;53.480;10.004;2022-12-18T15:59:15;-0.40;99.90
7206;DHT22;3644;53.480;10.004;2022-12-18T16:01:41;-0.50;99.90
7206;DHT22;3644;53.480;10.004;2022-12-18T16:04:11;-0.40;99.90
7206;DHT22;3644;53.480;10.004;2022-12-18T16:06:37;-0.50;99.90
7206;DHT22;3644;53.480;10.004;2022-12-18T16:09:03;-0.50;99.90
7206;DHT22;3644;53.480;10.004;2022-12-18T16:11:30;-0.50;99.90
7206;DHT22;3644;53.480;10.004;2022-12-18T16:16:37;-0.50;99.90
7206;DHT22;3644;53.480;10.004;2022-12-18T16:19:02;-0.60;99.90
7206;DHT22;3644;53.480;10.004;2022-12-18T16:21:28;-0.50;99.90
7206;DHT22;3644;53.480;10.004;2022-12-18T16:23:53;-0.50;99.90
7206;DHT22;3644;53.480;10.004;2022-12-18T16:26:19;-0.50;99.90
7206;DHT22;3644;53.480;10.004;2022-12-18T16:28:44;-0.50;99.90
7206;DHT22;3644;53.480;10.004;2022-12-18T16:31:10;-0.60;99.90
7206;DHT22;3644;53.480;10.004;2022-12-18T16:33:35;-0.40;99.90
7206;DHT22;3644;53.480;10.004;2022-12-18T16:36:01;-0.50;99.90
7206;DHT22;3644;53.480;10.004;2022-12-18T16:38:26;-0.30;99.90
7206;DHT22;3644;53.480;10.004;2022-12-18T16:40:52;-0.30;99.90
7206;DHT22;3644;53.480;10.004;2022-12-18T16:43:36;-0.40;99.90
7206;DHT22;3644;53.480;10.004;2022-12-18T16:46:02;-0.40;99.90
7206;DHT22;3644;53.480;10.004;2022-12-18T16:48:27;-0.40;99.90
7206;DHT22;3644;53.480;10.004;2022-12-18T16:51:00;-0.40;99.90
7206;DHT22;3644;53.480;10.004;2022-12-18T16:53:31;-0.30;99.90
7206;DHT22;3644;53.480;10.004;2022-12-18T16:55:57;-0.50;99.90
7206;DHT22;3644;53.480;10.004;2022-12-18T16:58:22;-0.40;99.90
7206;DHT22;3644;53.480;10.004;2022-12-18T17:00:48;-0.30;99.90
7206;DHT22;3644;53.480;10.004;2022-12-18T17:03:13;-0.20;99.90
7206;DHT22;3644;53.480;10.004;2022-12-18T17:05:39;-0.20;99.90
7206;DHT22;3644;53.480;10.004;2022-12-18T17:08:05;-0.10;99.90
7206;DHT22;3644;53.480;10.004;2022-12-18T17:10:30;0.00;99.90
7206;DHT22;3644;53.480;10.004;2022-12-18T17:12:56;0.00;99.90
7206;DHT22;3644;53.480;10.004;2022-12-18T17:15:22;0.00;99.90
7206;DHT22;3644;53.480;10.004;2022-12-18T17:17:47;0.00;99.90
7206;DHT22;3644;53.480;10.004;2022-12-18T17:20:13;0.10;99.90
7206;DHT22;3644;53.480;10.004;2022-12-18T17:22:38;0.10;99.90
7206;DHT22;3644;53.480;10.004;2022-12-18T17:25:04;0.00;99.90
7206;DHT22;3644;53.480;10.004;2022-12-18T17:27:29;-0.10;99.90
7206;DHT22;3644;53.480;10.004;2022-12-18T17:29:55;-0.20;99.90
7206;DHT22;3644;53.480;10.004;2022-12-18T17:32:20;-0.20;99.90
7206;DHT22;3644;53.480;10.004;2022-12-18T17:34:46;-0.20;99.90
7206;DHT22;3644;53.480;10.004;2022-12-18T17:37:12;-0.20;99.90
7206;DHT22;3644;53.480;10.004;2022-12-18T17:39:38;-0.20;99.90
7206;DHT22;3644;53.480;10.004;2022-12-18T17:42:03;-0.10;99.90